Time;durP1;ratioP1;P1;durP2;ratioP2;P2;SDS_P1;SDS_P2;PMS_P1;PMS_P2;Temp;Humidity;BMP_temperature;BMP_pressure;BME280_temperature;BME280_humidity;BME280_pressure;Samples;Min_cycle;Max_cycle;Signal;HPM_P1;HPM_P2
2022/11/20 00:01:25;;;;;;;37.88;19.95;;;;;;;3.60;95.49;100070.16;5101639;28;20078;-73
2022/11/20 00:03:52;;;;;;;40.42;20.30;;;;;;;3.61;95.59;100063.91;5099357;28;20030;-73
2022/11/20 00:06:19;;;;;;;37.83;20.50;;;;;;;3.59;96.08;100055.22;5097903;28;20020;-73
2022/11/20 00:08:45;;;;;;;40.38;20.58;;;;;;;3.60;95.57;100066.66;5101661;28;20039;-72
2022/11/20 00:11:16;;;;;;;37.17;19.75;;;;;;;3.62;95.07;100075.38;5095766;28;20475;-66
2022/11/20 00:13:43;;;;;;;38.88;21.20;;;;;;;3.64;94.61;100081.44;5097360;28;20028;-66
2022/11/20 00:16:10;;;;;;;38.58;20.75;;;;;;;3.58;95.13;100060.63;5092006;28;20028;-65
2022/11/20 00:18:36;;;;;;;36.33;20.20;;;;;;;3.61;95.01;100076.34;5101917;28;20025;-65
2022/11/20 00:21:07;;;;;;;39.03;20.90;;;;;;;3.59;94.79;100072.91;5101025;28;20066;-64
2022/11/20 00:23:33;;;;;;;38.60;21.05;;;;;;;3.59;95.26;100064.97;5090180;28;20064;-65
2022/11/20 00:26:04;;;;;;;41.50;21.10;;;;;;;3.55;94.85;100050.22;5090168;28;20399;-66
2022/11/20 00:28:29;;;;;;;38.38;21.70;;;;;;;3.59;94.49;100068.47;5096438;28;20034;-66
2022/11/20 00:31:06;;;;;;;40.72;20.77;;;;;;;3.59;94.39;100072.91;5101007;28;20367;-66
2022/11/20 00:33:32;;;;;;;37.45;20.02;;;;;;;3.60;94.32;100066.66;5105305;28;20078;-65
2022/11/20 00:36:06;;;;;;;39.85;21.10;;;;;;;3.58;94.18;100061.44;5099604;28;20685;-65
2022/11/20 00:38:32;;;;;;;41.92;22.95;;;;;;;3.60;94.18;100066.66;5093077;28;20031;-65
2022/11/20 00:41:00;;;;;;;42.78;22.92;;;;;;;3.56;94.02;100076.63;5091133;28;20523;-65
2022/11/20 00:43:26;;;;;;;42.63;21.80;;;;;;;3.53;94.11;100068.00;5092674;28;20844;-66
2022/11/20 00:45:59;;;;;;;38.13;20.48;;;;;;;3.56;94.32;100062.50;5101089;28;20478;-64
2022/11/20 00:48:24;;;;;;;38.63;20.60;;;;;;;3.48;93.94;100039.13;5098993;28;20039;-64
2022/11/20 00:50:50;;;;;;;41.70;22.10;;;;;;;3.59;93.77;100049.06;5094384;28;20069;-65
2022/11/20 00:53:15;;;;;;;33.83;19.30;;;;;;;3.56;93.92;100025.38;5097918;28;20027;-66
2022/11/20 00:55:41;;;;;;;35.97;20.38;;;;;;;3.52;94.10;100034.50;5103506;28;20100;-66
2022/11/20 00:58:06;;;;;;;39.97;21.48;;;;;;;3.44;93.61;100021.72;5092976;28;20059;-66
2022/11/20 01:00:32;;;;;;;40.35;21.73;;;;;;;3.53;94.47;100036.19;5099234;28;20028;-73
2022/11/20 01:02:57;;;;;;;42.17;20.80;;;;;;;3.51;94.92;100041.59;5102895;28;20033;-65
2022/11/20 01:05:22;;;;;;;39.08;21.30;;;;;;;3.47;94.84;100031.28;5094248;28;20502;-66
2022/11/20 01:07:48;;;;;;;42.95;22.33;;;;;;;3.43;94.78;100014.72;5098780;28;20019;-66
2022/11/20 01:10:13;;;;;;;41.15;21.13;;;;;;;3.39;94.79;100005.25;5094161;28;20046;-64
2022/11/20 01:12:39;;;;;;;37.05;20.40;;;;;;;3.50;95.43;100023.13;5103639;28;20034;-66
2022/11/20 01:15:05;;;;;;;39.78;21.45;;;;;;;3.45;95.88;100007.50;5098915;28;20027;-65
2022/11/20 01:17:31;;;;;;;39.65;20.27;;;;;;;3.52;95.30;100023.88;5091010;28;20380;-65
2022/11/20 01:19:56;;;;;;;40.63;22.17;;;;;;;3.47;95.47;100025.97;5096234;28;20372;-65
2022/11/20 01:22:22;;;;;;;40.47;21.67;;;;;;;3.46;95.86;100025.13;5099097;28;20088;-66
2022/11/20 01:24:47;;;;;;;36.45;20.23;;;;;;;3.48;95.90;100022.38;5094820;28;20032;-66
2022/11/20 01:27:13;;;;;;;40.53;21.20;;;;;;;3.49;95.45;100021.44;5095994;28;20111;-65
2022/11/20 01:29:38;;;;;;;38.15;21.00;;;;;;;3.45;96.18;100019.94;5097303;28;20068;-65
2022/11/20 01:32:04;;;;;;;40.83;21.23;;;;;;;3.38;96.33;99995.59;5093087;28;20032;-66
2022/11/20 01:34:29;;;;;;;40.33;20.55;;;;;;;3.41;96.58;100002.50;5097358;28;20432;-65
2022/11/20 01:36:55;;;;;;;39.65;21.50;;;;;;;3.36;96.44;99996.66;5090843;28;20030;-66
2022/11/20 01:39:23;;;;;;;44.05;22.83;;;;;;;3.42;96.68;100004.22;5089311;28;20036;-72
2022/11/20 01:44:49;;;;;;;36.22;19.63;;;;;;;3.43;97.02;100016.53;5097823;28;20066;-73
2022/11/20 01:47:20;;;;;;;38.40;20.45;;;;;;;3.45;96.82;100012.81;5094490;28;20035;-73
2022/11/20 01:49:56;;;;;;;39.00;21.33;;;;;;;3.46;97.22;100008.38;5104168;28;20038;-73
2022/11/20 01:52:30;;;;;;;38.97;21.13;;;;;;;3.46;97.34;100013.69;5097235;28;20047;-73
2022/11/20 01:55:01;;;;;;;40.97;20.55;;;;;;;3.38;97.52;100015.94;5099585;28;20521;-73
2022/11/20 01:57:29;;;;;;;37.65;21.02;;;;;;;3.44;97.46;100039.41;5098996;28;20024;-72
2022/11/20 02:00:01;;;;;;;38.45;21.58;;;;;;;3.42;97.40;100034.22;5096189;28;20031;-72
2022/11/20 02:02:27;;;;;;;35.97;20.83;;;;;;;3.43;97.45;100025.34;5098042;28;20109;-73
2022/11/20 02:05:00;;;;;;;36.47;20.45;;;;;;;3.45;96.71;100012.81;5102312;28;20056;-72
2022/11/20 02:07:26;;;;;;;37.58;19.42;;;;;;;3.49;95.73;100019.66;5095319;28;20088;-72
2022/11/20 02:09:51;;;;;;;35.63;20.52;;;;;;;3.46;96.29;100009.25;5101186;28;20036;-72
2022/11/20 02:15:01;;;;;;;37.65;20.88;;;;;;;3.46;96.50;99993.34;5096076;28;20039;-73
2022/11/20 02:17:27;;;;;;;36.65;19.98;;;;;;;3.45;97.17;99991.59;5096696;28;20435;-72
2022/11/20 02:19:53;;;;;;;35.65;19.13;;;;;;;3.47;96.69;99992.38;5090179;28;20088;-73
2022/11/20 02:22:35;;;;;;;38.63;20.38;;;;;;;3.46;96.28;100008.38;5095351;28;20382;-73
2022/11/20 02:25:03;;;;;;;35.80;18.85;;;;;;;3.52;95.60;99997.38;5095142;28;20020;-71
2022/11/20 02:27:29;;;;;;;34.85;18.10;;;;;;;3.48;95.41;99998.53;5101426;28;20015;-72
2022/11/20 02:30:01;;;;;;;38.15;19.92;;;;;;;3.41;96.17;99984.81;5105464;28;20031;-73
2022/11/20 02:32:30;;;;;;;34.80;19.30;;;;;;;3.45;96.36;99991.59;5101663;28;20115;-72
2022/11/20 02:34:56;;;;;;;35.50;18.83;;;;;;;3.43;95.84;99985.56;5098017;28;20115;-72
2022/11/20 02:37:23;;;;;;;32.75;17.75;;;;;;;3.47;96.18;99995.03;5095379;28;20115;-73
2022/11/20 02:39:51;;;;;;;33.72;17.92;;;;;;;3.45;96.52;99990.78;5103903;28;20462;-73
2022/11/20 02:42:16;;;;;;;33.50;19.40;;;;;;;3.39;96.90;99976.09;5093364;28;20028;-73
2022/11/20 02:44:42;;;;;;;30.92;17.27;;;;;;;3.51;96.83;99990.38;5101852;28;20027;-73
2022/11/20 02:47:07;;;;;;;33.58;18.77;;;;;;;3.45;97.13;99974.88;5095642;28;20063;-73
2022/11/20 02:49:33;;;;;;;34.20;18.60;;;;;;;3.52;97.12;99984.13;5107634;28;20540;-73
2022/11/20 02:51:59;;;;;;;32.03;18.35;;;;;;;3.50;97.16;99978.06;5105928;28;20040;-73
2022/11/20 02:54:25;;;;;;;32.15;18.45;;;;;;;3.57;96.37;99966.09;5102921;28;20089;-73
2022/11/20 02:56:51;;;;;;;39.17;19.10;;;;;;;3.54;97.15;99963.66;5104537;28;20037;-73
2022/11/20 02:59:16;;;;;;;39.95;18.58;;;;;;;3.49;97.26;99949.88;5101080;28;20076;-73
2022/11/20 03:01:41;;;;;;;33.78;18.15;;;;;;;3.44;96.26;99957.25;5095058;28;20492;-67
2022/11/20 03:04:07;;;;;;;35.35;16.80;;;;;;;3.52;96.38;99982.31;5091090;28;20020;-66
2022/11/20 03:06:32;;;;;;;31.90;18.10;;;;;;;3.53;96.67;99978.72;5101191;28;20478;-66
2022/11/20 03:08:58;;;;;;;31.95;17.75;;;;;;;3.41;97.38;99962.75;5100207;28;20026;-66
2022/11/20 03:11:23;;;;;;;36.60;18.00;;;;;;;3.45;97.67;99974.88;5099903;28;20070;-66
2022/11/20 03:13:49;;;;;;;33.47;17.25;;;;;;;3.42;97.34;99972.41;5093828;28;20085;-65
2022/11/20 03:16:17;;;;;;;33.08;18.23;;;;;;;3.43;97.46;99990.00;5096132;28;20031;-65
2022/11/20 03:18:43;;;;;;;32.60;17.30;;;;;;;3.42;97.54;99988.31;5099034;28;20039;-66
2022/11/20 03:21:11;;;;;;;33.70;19.10;;;;;;;3.40;97.19;99999.03;5098597;28;20039;-66
2022/11/20 03:23:37;;;;;;;29.95;16.10;;;;;;;3.38;97.27;99984.13;5099952;28;20043;-66
2022/11/20 03:26:15;;;;;;;32.15;17.38;;;;;;;3.43;96.96;100003.25;5093493;28;20053;-73
2022/11/20 03:28:45;;;;;;;31.27;18.08;;;;;;;3.36;96.51;99999.31;5100101;28;20019;-73
2022/11/20 03:31:13;;;;;;;32.67;17.23;;;;;;;3.47;95.80;100010.94;5098396;28;20080;-72
2022/11/20 03:33:40;;;;;;;33.55;18.10;;;;;;;3.38;95.94;99997.41;5101994;28;20031;-67
2022/11/20 03:36:11;;;;;;;35.30;17.75;;;;;;;3.43;95.66;99987.38;5101353;28;20042;-66
2022/11/20 03:38:37;;;;;;;29.42;16.38;;;;;;;3.39;96.08;99977.91;5094011;28;20020;-66
2022/11/20 03:41:08;;;;;;;27.98;15.70;;;;;;;3.50;95.78;99993.97;5095153;28;20023;-66
2022/11/20 03:43:34;;;;;;;29.70;16.23;;;;;;;3.47;95.52;100000.31;5097418;28;20055;-66
2022/11/20 03:46:00;;;;;;;28.48;15.65;;;;;;;3.43;95.45;100006.78;5099489;28;20106;-66
2022/11/20 03:48:26;;;;;;;31.23;15.52;;;;;;;3.47;95.57;100023.31;5096118;28;20035;-66
2022/11/20 03:50:53;;;;;;;28.60;15.82;;;;;;;3.51;95.90;100016.91;5094460;28;20076;-66
2022/11/20 03:53:19;;;;;;;31.83;16.02;;;;;;;3.43;95.64;100004.13;5107996;28;20114;-66
2022/11/20 03:55:45;;;;;;;28.98;15.55;;;;;;;3.55;95.37;100018.41;5101889;28;20483;-66
2022/11/20 03:58:10;;;;;;;32.08;16.77;;;;;;;3.54;95.36;100012.22;5090581;28;20059;-66
2022/11/20 04:00:36;;;;;;;26.50;14.88;;;;;;;3.47;95.30;99996.81;5086996;28;20111;-66
2022/11/20 04:03:02;;;;;;;27.58;16.30;;;;;;;3.42;95.52;99988.31;5095759;28;20501;-66
2022/11/20 04:05:28;;;;;;;31.35;16.65;;;;;;;3.61;94.85;100010.06;5094072;28;20023;-67
2022/11/20 04:07:53;;;;;;;27.95;16.45;;;;;;;3.44;95.08;99984.63;5088539;28;20080;-67
2022/11/20 04:10:19;;;;;;;28.20;15.45;;;;;;;3.49;95.44;99981.69;5109855;27;20073;-66
2022/11/20 04:12:45;;;;;;;28.17;16.30;;;;;;;3.51;95.60;99975.31;5103703;28;20119;-66
2022/11/20 04:15:10;;;;;;;27.63;15.02;;;;;;;3.56;94.60;99967.94;5100731;27;20563;-66
2022/11/20 04:17:36;;;;;;;26.92;14.68;;;;;;;3.56;94.38;99953.81;5097508;28;20020;-66
2022/11/20 04:20:02;;;;;;;27.00;15.48;;;;;;;3.53;94.02;99959.31;5090031;28;20048;-66
2022/11/20 04:22:28;;;;;;;25.45;14.90;;;;;;;3.49;93.68;99965.75;5071975;28;20439;-65
2022/11/20 04:24:53;;;;;;;30.17;15.85;;;;;;;3.54;94.18;99971.59;5086039;28;20069;-65
2022/11/20 04:27:19;;;;;;;31.40;16.95;;;;;;;3.49;93.08;99957.81;5077064;28;20029;-66
2022/11/20 04:29:44;;;;;;;30.83;16.23;;;;;;;3.49;92.95;99945.44;5082459;28;20107;-67
2022/11/20 04:32:10;;;;;;;27.48;15.68;;;;;;;3.47;93.14;99928.75;5076991;28;20134;-67
2022/11/20 04:34:35;;;;;;;29.38;16.63;;;;;;;3.56;92.72;99930.81;5077007;28;20028;-66
2022/11/20 04:37:01;;;;;;;32.53;19.35;;;;;;;3.57;92.65;99937.81;5080263;28;20096;-72
2022/11/20 04:39:27;;;;;;;30.17;17.42;;;;;;;3.53;92.75;99946.06;5070396;28;20028;-73
2022/11/20 04:42:28;;;;;;;26.13;15.70;;;;;;;3.57;93.12;99950.19;5074866;28;20043;-72
2022/11/20 04:44:38;;;;;;;27.17;14.75;;;;;;;3.56;93.22;99943.22;5081621;28;20039;-72
2022/11/20 04:47:04;;;;;;;28.27;15.60;;;;;;;3.52;93.53;99936.41;5079432;28;20024;-72
2022/11/20 04:49:31;;;;;;;31.77;16.08;;;;;;;3.50;93.87;99935.66;5083238;28;20032;-72
2022/11/20 04:51:57;;;;;;;28.95;14.63;;;;;;;3.51;94.48;99932.06;5072295;28;20039;-72
2022/11/20 04:54:23;;;;;;;25.80;14.05;;;;;;;3.48;94.77;99932.28;5077022;28;20391;-72
2022/11/20 04:56:49;;;;;;;28.05;15.00;;;;;;;3.49;94.15;99937.47;5074404;28;20045;-71
2022/11/20 04:59:14;;;;;;;29.48;16.02;;;;;;;3.47;94.76;99938.50;5073479;28;20413;-65
2022/11/20 05:01:40;;;;;;;30.65;16.45;;;;;;;3.44;95.04;99949.28;5074118;28;20081;-65
2022/11/20 05:04:05;;;;;;;33.15;16.08;;;;;;;3.31;95.48;99925.41;5077131;28;20027;-65
2022/11/20 05:06:31;;;;;;;30.50;15.32;;;;;;;3.45;95.77;99932.47;5074065;28;20081;-65
2022/11/20 05:08:57;;;;;;;29.75;15.77;;;;;;;3.37;96.39;99902.94;5076264;28;20105;-72
2022/11/20 05:11:23;;;;;;;26.33;14.60;;;;;;;3.46;96.51;99908.50;5077949;28;20036;-72
2022/11/20 05:13:51;;;;;;;28.40;15.68;;;;;;;3.47;96.54;99893.44;5078691;28;20033;-73
2022/11/20 05:16:22;;;;;;;27.48;14.40;;;;;;;3.52;96.51;99875.44;5074818;28;20025;-73
2022/11/20 05:18:47;;;;;;;27.42;15.50;;;;;;;3.54;96.03;99878.81;5079455;28;20036;-72
2022/11/20 05:21:14;;;;;;;27.88;15.60;;;;;;;3.57;96.34;99879.47;5079192;28;20426;-73
2022/11/20 05:23:40;;;;;;;28.83;15.15;;;;;;;3.55;95.55;99868.13;5074352;28;20419;-71
2022/11/20 05:26:07;;;;;;;31.65;16.80;;;;;;;3.57;95.47;99889.22;5076474;28;20020;-71
2022/11/20 05:28:33;;;;;;;29.90;16.25;;;;;;;3.42;95.70;99875.19;5075750;28;20032;-73
2022/11/20 05:31:08;;;;;;;28.15;16.42;;;;;;;3.58;95.44;99909.50;5078391;28;20388;-73
2022/11/20 05:33:35;;;;;;;28.70;16.27;;;;;;;3.57;95.62;99905.13;5076935;28;20024;-72
2022/11/20 05:36:02;;;;;;;29.30;16.80;;;;;;;3.56;95.43;99903.44;5078610;28;20024;-71
2022/11/20 05:38:27;;;;;;;29.50;15.80;;;;;;;3.55;95.06;99901.75;5081199;28;20085;-72
2022/11/20 05:40:53;;;;;;;27.42;15.70;;;;;;;3.55;95.25;99904.41;5083553;28;20025;-73
2022/11/20 05:43:18;;;;;;;28.83;16.08;;;;;;;3.58;94.30;99897.06;5073839;28;20031;-73
2022/11/20 05:45:54;;;;;;;29.02;15.57;;;;;;;3.46;94.13;99875.84;5072765;28;20032;-67
2022/11/20 05:48:20;;;;;;;27.17;14.70;;;;;;;3.49;94.63;99883.59;5073521;28;20469;-65
2022/11/20 05:50:45;;;;;;;25.77;14.18;;;;;;;3.53;94.72;99896.56;5075098;28;20043;-65
2022/11/20 05:53:11;;;;;;;29.33;15.70;;;;;;;3.46;94.52;99878.50;5072898;28;20043;-65
2022/11/20 05:55:36;;;;;;;25.98;14.77;;;;;;;3.48;94.19;99884.56;5067259;28;20047;-65
2022/11/20 05:58:02;;;;;;;27.90;16.08;;;;;;;3.54;94.51;99884.97;5076031;28;20063;-65
2022/11/20 06:00:27;;;;;;;26.38;15.07;;;;;;;3.63;94.36;99891.47;5074170;28;20060;-65
2022/11/20 06:02:52;;;;;;;29.95;16.08;;;;;;;3.63;93.90;99907.38;5070017;28;20032;-65
2022/11/20 06:05:18;;;;;;;26.10;14.35;;;;;;;3.68;94.03;99934.47;5075999;28;20032;-71
2022/11/20 06:07:43;;;;;;;27.35;15.55;;;;;;;3.65;94.22;99926.72;5093639;28;20031;-70
2022/11/20 06:10:09;;;;;;;28.90;15.68;;;;;;;3.63;94.55;99920.63;5090353;28;20057;-72
2022/11/20 06:12:34;;;;;;;29.90;16.25;;;;;;;3.63;94.01;99925.94;5083976;28;20028;-72
2022/11/20 06:15:00;;;;;;;28.67;16.38;;;;;;;3.66;94.67;99921.31;5079478;28;20111;-73
2022/11/20 06:17:26;;;;;;;28.17;15.80;;;;;;;3.63;94.23;99910.91;5080755;28;20051;-72
2022/11/20 06:19:51;;;;;;;30.10;15.65;;;;;;;3.68;94.99;99923.84;5078717;28;20031;-73
2022/11/20 06:22:17;;;;;;;34.72;15.55;;;;;;;3.57;95.34;99929.84;5086140;28;21068;-72
2022/11/20 06:24:42;;;;;;;27.88;14.50;;;;;;;3.65;95.56;99942.63;5083171;28;20089;-65
2022/11/20 06:27:08;;;;;;;29.42;16.27;;;;;;;3.67;95.85;99952.16;5082908;28;20059;-65
2022/11/20 06:29:33;;;;;;;30.35;16.65;;;;;;;3.68;95.97;99960.97;5079987;28;20122;-65
2022/11/20 06:31:59;;;;;;;28.50;15.20;;;;;;;3.63;95.51;99955.97;5086917;28;20028;-66
2022/11/20 06:34:24;;;;;;;28.45;16.25;;;;;;;3.71;95.49;99958.94;5081938;28;20028;-65
2022/11/20 06:36:49;;;;;;;32.53;17.23;;;;;;;3.67;95.35;99928.28;5079556;28;20028;-66
2022/11/20 06:39:15;;;;;;;24.50;15.23;;;;;;;3.76;95.08;99938.31;5081203;28;20053;-65
2022/11/20 06:41:40;;;;;;;27.33;15.57;;;;;;;3.80;94.74;99946.88;5083323;28;20035;-66
2022/11/20 06:44:06;;;;;;;30.88;16.15;;;;;;;3.79;94.84;99964.63;5078466;28;20399;-65
2022/11/20 06:46:32;;;;;;;31.85;16.30;;;;;;;3.80;94.86;99966.31;5082951;28;20495;-65
2022/11/20 06:48:58;;;;;;;34.63;18.02;;;;;;;3.82;95.21;99953.81;5077695;28;20198;-66
2022/11/20 06:51:23;;;;;;;31.35;16.77;;;;;;;3.85;95.04;99953.63;5080752;28;20613;-66
2022/11/20 06:53:49;;;;;;;33.13;17.25;;;;;;;3.76;95.26;99937.44;5073730;28;20028;-66
2022/11/20 06:56:14;;;;;;;32.70;16.35;;;;;;;3.81;95.25;99954.75;5080043;28;20073;-66
2022/11/20 06:58:40;;;;;;;28.30;15.57;;;;;;;3.76;94.19;99951.56;5071963;28;20039;-65
2022/11/20 07:01:08;;;;;;;30.63;16.42;;;;;;;3.90;93.70;99969.22;5074314;28;20029;-65
2022/11/20 07:03:34;;;;;;;28.73;15.50;;;;;;;3.91;94.38;99973.56;5086535;28;20042;-64
2022/11/20 07:06:01;;;;;;;30.10;15.98;;;;;;;3.89;94.49;99971.03;5081186;28;20036;-64
2022/11/20 07:08:27;;;;;;;27.63;15.35;;;;;;;3.97;94.74;99975.81;5084447;28;20031;-64
2022/11/20 07:10:52;;;;;;;29.15;15.90;;;;;;;3.97;95.21;99965.22;5072918;28;20040;-65
2022/11/20 07:13:17;;;;;;;30.13;17.35;;;;;;;3.97;95.27;99949.28;5073335;28;20449;-65
2022/11/20 07:15:43;;;;;;;28.65;17.10;;;;;;;4.00;95.33;99941.97;5065699;28;20488;-66
2022/11/20 07:18:08;;;;;;;28.92;16.17;;;;;;;4.05;94.53;99944.31;5076654;28;20671;-72
2022/11/20 07:20:34;;;;;;;26.48;14.63;;;;;;;4.03;94.91;99940.94;5078819;28;20050;-72
2022/11/20 07:22:59;;;;;;;29.73;16.63;;;;;;;4.10;95.01;99944.88;5072605;28;20020;-72
2022/11/20 07:25:26;;;;;;;29.25;15.90;;;;;;;4.04;95.33;99932.00;5071766;28;20129;-73
2022/11/20 07:27:52;;;;;;;30.92;16.75;;;;;;;4.10;95.29;99934.25;5073340;28;20047;-72
2022/11/20 07:30:18;;;;;;;28.67;16.83;;;;;;;4.12;94.98;99951.75;5082357;28;20032;-71
2022/11/20 07:32:47;;;;;;;27.08;15.63;;;;;;;4.17;95.55;99956.75;5075408;28;20032;-72
2022/11/20 07:35:12;;;;;;;25.10;14.30;;;;;;;4.11;95.62;99949.22;5073114;28;20376;-71
2022/11/20 07:37:38;;;;;;;27.67;16.30;;;;;;;4.23;94.94;99943.91;5082472;28;20051;-72
2022/11/20 07:40:04;;;;;;;26.38;14.85;;;;;;;4.18;95.23;99950.50;5078664;28;20043;-73
2022/11/20 07:42:29;;;;;;;28.50;16.00;;;;;;;4.31;93.52;99965.50;5075547;28;20108;-72
2022/11/20 07:44:55;;;;;;;29.73;15.90;;;;;;;4.28;94.43;99959.53;5075158;28;20028;-71
2022/11/20 07:47:20;;;;;;;28.60;16.75;;;;;;;4.39;94.24;99986.22;5082701;28;20051;-72
2022/11/20 07:49:46;;;;;;;28.90;16.55;;;;;;;4.37;94.45;99974.84;5080463;28;20031;-71
2022/11/20 07:52:11;;;;;;;28.90;16.25;;;;;;;4.49;94.80;99981.97;5078471;28;20051;-69
2022/11/20 07:54:37;;;;;;;34.88;17.40;;;;;;;4.54;93.58;99985.16;5077993;28;20020;-72
2022/11/20 07:57:02;;;;;;;33.10;17.38;;;;;;;4.58;93.95;99989.31;5078978;28;20048;-73
2022/11/20 07:59:28;;;;;;;30.45;16.95;;;;;;;4.64;93.69;99988.88;5080497;28;20032;-72
2022/11/20 08:01:53;;;;;;;31.42;17.08;;;;;;;4.70;93.47;99985.78;5080231;28;20058;-72
2022/11/20 08:04:19;;;;;;;30.25;16.42;;;;;;;4.64;94.36;99975.59;5077564;28;20043;-66
2022/11/20 08:06:44;;;;;;;30.67;17.08;;;;;;;4.78;94.61;99994.09;5074596;28;20021;-72
2022/11/20 08:09:09;;;;;;;31.08;16.92;;;;;;;4.90;93.47;100003.84;5076176;28;20081;-72
2022/11/20 08:14:19;;;;;;;31.55;17.38;;;;;;;4.94;93.49;100026.63;5074272;28;20119;-65
2022/11/20 08:16:47;;;;;;;30.40;16.13;;;;;;;4.97;93.41;100029.06;5080577;28;20111;-66
2022/11/20 08:19:14;;;;;;;28.30;16.65;;;;;;;5.07;92.30;100027.47;5079258;28;20122;-66
2022/11/20 08:21:40;;;;;;;30.90;16.85;;;;;;;5.19;90.64;100025.75;5066861;28;20036;-66
2022/11/20 08:24:06;;;;;;;30.27;16.65;;;;;;;5.12;91.89;100016.50;5076708;28;20028;-65
2022/11/20 08:26:32;;;;;;;29.70;17.52;;;;;;;4.92;92.60;99980.69;5074612;28;20407;-66
2022/11/20 08:28:57;;;;;;;31.63;17.58;;;;;;;5.19;92.29;100013.28;5081205;28;20044;-65
2022/11/20 08:31:27;;;;;;;32.53;17.92;;;;;;;5.11;92.75;99997.03;5073570;28;20039;-66
2022/11/20 08:33:52;;;;;;;29.75;17.33;;;;;;;5.20;93.36;100007.03;5074166;28;20037;-66
2022/11/20 08:36:20;;;;;;;30.75;17.05;;;;;;;5.31;92.69;100011.56;5073449;28;20094;-66
2022/11/20 08:38:49;;;;;;;29.40;16.38;;;;;;;5.31;92.42;100012.44;5081710;28;20050;-65
2022/11/20 08:41:23;;;;;;;30.00;16.58;;;;;;;5.36;92.50;100036.91;5076916;28;20104;-66
2022/11/20 08:43:55;;;;;;;29.92;17.23;;;;;;;5.48;92.11;100053.78;5073806;28;20076;-65
2022/11/20 08:46:21;;;;;;;28.85;15.68;;;;;;;5.48;91.30;100035.16;5076621;28;20025;-66
2022/11/20 08:48:46;;;;;;;28.23;17.33;;;;;;;5.55;91.61;100028.44;5077631;28;20020;-66
2022/11/20 08:51:12;;;;;;;29.35;16.02;;;;;;;5.63;91.74;100034.03;5067090;28;20053;-66
2022/11/20 08:53:39;;;;;;;27.20;15.77;;;;;;;5.60;91.14;100026.28;5075398;28;20496;-65
2022/11/20 08:56:05;;;;;;;25.00;14.65;;;;;;;5.72;90.70;100044.03;5076749;28;20050;-65
2022/11/20 08:58:30;;;;;;;23.20;14.27;;;;;;;5.65;90.98;100021.50;5075796;28;20031;-65
2022/11/20 09:00:56;;;;;;;27.38;15.55;;;;;;;5.76;90.34;100032.19;5071761;28;20111;-65
2022/11/20 09:03:21;;;;;;;25.15;15.13;;;;;;;5.82;91.18;100032.66;5074659;28;20059;-66
2022/11/20 09:05:47;;;;;;;26.13;15.18;;;;;;;5.86;90.68;100034.13;5076492;28;20118;-66
2022/11/20 09:08:12;;;;;;;28.10;16.48;;;;;;;5.99;89.79;100058.00;5076251;28;20634;-66
2022/11/20 09:10:41;;;;;;;25.42;14.93;;;;;;;6.05;89.33;100066.41;5072005;28;20036;-65
2022/11/20 09:13:06;;;;;;;24.55;14.15;;;;;;;6.14;88.26;100056.91;5077957;28;20551;-65
2022/11/20 09:15:33;;;;;;;22.08;14.30;;;;;;;6.10;87.84;100021.66;5074479;28;20056;-65
2022/11/20 09:18:01;;;;;;;26.05;14.65;;;;;;;6.21;88.74;100024.38;5072781;28;20463;-65
2022/11/20 09:20:28;;;;;;;26.08;14.52;;;;;;;6.24;88.66;100017.97;5072866;28;20044;-65
2022/11/20 09:22:54;;;;;;;27.88;15.65;;;;;;;6.34;88.20;100025.16;5071679;28;20025;-66
2022/11/20 09:25:20;;;;;;;25.58;14.70;;;;;;;6.43;87.04;100035.13;5067868;28;20035;-66
2022/11/20 09:27:45;;;;;;;25.30;14.77;;;;;;;6.48;86.53;100040.94;5080104;28;20131;-65
2022/11/20 09:30:13;;;;;;;26.55;15.77;;;;;;;6.63;85.67;100038.94;5071523;28;20036;-66
2022/11/20 09:32:39;;;;;;;28.55;16.75;;;;;;;6.58;86.77;100022.47;5069774;28;20589;-65
2022/11/20 09:35:05;;;;;;;28.63;17.65;;;;;;;6.49;87.30;100016.00;5074850;28;20493;-65
2022/11/20 09:37:30;;;;;;;28.40;15.98;;;;;;;6.60;87.27;100042.69;5076767;28;20040;-66
2022/11/20 09:39:55;;;;;;;27.80;15.55;;;;;;;6.64;86.89;100043.28;5087451;28;20110;-66
2022/11/20 09:42:38;;;;;;;25.58;15.85;;;;;;;6.67;86.69;100043.06;5083637;28;20044;-67
2022/11/20 09:45:24;;;;;;;28.85;16.45;;;;;;;6.69;86.17;100023.34;5075666;28;20043;-65
2022/11/20 09:48:04;;;;;;;26.20;15.98;;;;;;;6.73;85.40;100003.47;5073887;28;20866;-65
2022/11/20 09:50:41;;;;;;;26.33;15.20;;;;;;;6.69;84.44;100001.16;5080046;28;20024;-65
2022/11/20 09:53:41;;;;;;;27.65;15.93;;;;;;;6.76;85.55;100003.25;5080443;28;20094;-67
2022/11/20 09:56:09;;;;;;;24.98;14.63;;;;;;;6.72;85.73;99993.81;5072781;28;20508;-65
2022/11/20 09:58:42;;;;;;;26.30;16.02;;;;;;;6.55;86.10;99964.09;5075592;28;20035;-65
2022/11/20 10:01:17;;;;;;;26.50;15.45;;;;;;;6.90;85.16;100020.81;5074045;28;20032;-66
2022/11/20 10:03:55;;;;;;;27.20;16.00;;;;;;;6.95;84.67;100024.00;5074116;28;20074;-65
2022/11/20 10:06:28;;;;;;;28.08;15.98;;;;;;;6.97;84.24;100009.56;5086947;28;20023;-65
2022/11/20 10:09:03;;;;;;;23.25;14.15;;;;;;;7.10;83.37;99998.81;5080015;28;20028;-65
2022/11/20 10:12:13;;;;;;;27.00;16.60;;;;;;;7.12;83.34;99988.84;5079233;28;20059;-66
2022/11/20 10:15:10;;;;;;;28.38;15.98;;;;;;;7.26;82.53;100009.09;5068169;28;20052;-65
2022/11/20 10:18:02;;;;;;;24.13;14.40;;;;;;;7.52;78.73;100030.09;5077970;28;20045;-71
2022/11/20 10:20:48;;;;;;;23.65;14.48;;;;;;;7.53;77.51;100038.91;5080431;28;20024;-71
2022/11/20 10:23:25;;;;;;;25.48;14.73;;;;;;;7.42;79.77;100042.47;5086185;28;20122;-72
2022/11/20 10:25:54;;;;;;;25.35;14.93;;;;;;;7.33;80.55;100024.50;5083939;28;20116;-72
2022/11/20 10:28:58;;;;;;;26.75;15.95;;;;;;;7.31;81.19;100006.91;5075957;28;20166;-72
2022/11/20 10:31:31;;;;;;;23.02;14.13;;;;;;;7.49;78.70;100011.66;5055162;28;20060;-72
2022/11/20 10:33:59;;;;;;;26.63;15.77;;;;;;;7.43;79.89;100028.13;5081369;28;20529;-72
2022/11/20 10:36:33;;;;;;;27.75;14.80;;;;;;;7.37;80.38;100033.09;5085465;28;20028;-72
2022/11/20 10:39:04;;;;;;;24.77;14.18;;;;;;;7.20;80.89;100025.59;5078626;28;20141;-73
2022/11/20 10:41:39;;;;;;;23.00;14.73;;;;;;;7.45;79.71;100052.03;5078866;28;20024;-72
2022/11/20 10:44:12;;;;;;;28.67;15.05;;;;;;;7.48;79.07;100049.94;5075066;28;20044;-73
2022/11/20 10:46:45;;;;;;;23.33;14.73;;;;;;;7.36;81.23;100047.41;5077540;28;20027;-72
2022/11/20 10:49:19;;;;;;;24.98;14.82;;;;;;;7.49;79.66;100046.34;5079835;28;20024;-72
2022/11/20 10:51:53;;;;;;;;;;;;;;;7.49;79.82;100032.13;5083711;28;20395;-72
2022/11/20 10:54:26;;;;;;;27.38;14.70;;;;;;;7.33;81.76;100019.16;5079011;28;19998;-66
2022/11/20 10:56:56;;;;;;;26.42;15.90;;;;;;;7.32;83.06;100024.63;5079613;28;20028;-66
2022/11/20 10:59:59;;;;;;;29.00;16.75;;;;;;;7.30;84.59;100023.88;5068475;28;20428;-64
2022/11/20 11:02:33;;;;;;;30.67;17.65;;;;;;;7.45;82.16;99994.16;5078398;28;20519;-71
2022/11/20 11:05:10;;;;;;;24.40;15.27;;;;;;;7.58;81.73;100007.38;5079832;28;20502;-71
2022/11/20 11:07:39;;;;;;;25.08;16.17;;;;;;;7.66;80.59;100002.25;5079780;28;20046;-71
2022/11/20 11:10:23;;;;;;;25.73;16.00;;;;;;;7.47;81.01;99992.22;5078471;28;20030;-72
2022/11/20 11:12:49;;;;;;;26.85;16.00;;;;;;;7.40;82.63;99966.16;5075982;28;20491;-71
2022/11/20 11:15:36;;;;;;;27.98;16.02;;;;;;;7.38;83.45;99965.47;5078593;28;20028;-71
2022/11/20 11:18:02;;;;;;;27.95;16.13;;;;;;;7.33;83.37;99956.97;5076512;28;20464;-72
2022/11/20 11:20:28;;;;;;;25.65;16.45;;;;;;;7.42;83.52;99965.09;5072827;28;20032;-71
2022/11/20 11:22:56;;;;;;;24.40;16.02;;;;;;;7.53;82.85;99964.19;5079110;28;20057;-71
2022/11/20 11:25:36;;;;;;;30.92;16.70;;;;;;;7.60;81.32;99976.94;5080114;28;20039;-70
2022/11/20 11:28:16;;;;;;;27.27;16.27;;;;;;;7.53;83.02;99981.06;5072774;28;20048;-65
2022/11/20 11:30:43;;;;;;;28.38;16.17;;;;;;;7.56;83.36;99966.63;5080685;28;20036;-65
2022/11/20 11:33:11;;;;;;;26.23;15.93;;;;;;;7.65;82.47;99963.22;5077505;28;20032;-65
2022/11/20 11:35:49;;;;;;;26.02;16.02;;;;;;;7.79;80.63;99968.25;5075354;28;20107;-66